sensor_id;sensor_type;location;lat;lon;timestamp;temperature;humidity
1678;DHT22;6034;46.864;15.216;2022-07-12T05:02:25;17.10;99.90
1678;DHT22;6034;46.864;15.216;2022-07-12T05:04:52;17.10;99.90
1678;DHT22;6034;46.864;15.216;2022-07-12T05:07:19;17.10;99.90
1678;DHT22;6034;46.864;15.216;2022-07-12T05:09:46;17.10;99.90
1678;DHT22;6034;46.864;15.216;2022-07-12T05:12:13;17.10;99.90
1678;DHT22;6034;46.864;15.216;2022-07-12T05:14:40;17.10;99.90
1678;DHT22;6034;46.864;15.216;2022-07-12T05:17:07;17.00;99.90
1678;DHT22;6034;46.864;15.216;2022-07-12T05:19:35;17.00;99.90
1678;DHT22;6034;46.864;15.216;2022-07-12T05:22:03;17.00;99.90
1678;DHT22;6034;46.864;15.216;2022-07-12T05:24:30;17.10;99.90
1678;DHT22;6034;46.864;15.216;2022-07-12T05:26:57;15.10;99.90
1678;DHT22;6034;46.864;15.216;2022-07-12T05:29:24;17.10;99.90
1678;DHT22;6034;46.864;15.216;2022-07-12T05:31:53;17.10;99.90
1678;DHT22;6034;46.864;15.216;2022-07-12T05:34:21;17.10;99.90
1678;DHT22;6034;46.864;15.216;2022-07-12T05:36:49;17.10;99.90
1678;DHT22;6034;46.864;15.216;2022-07-12T05:39:16;17.20;99.90
1678;DHT22;6034;46.864;15.216;2022-07-12T05:41:43;17.20;99.90
1678;DHT22;6034;46.864;15.216;2022-07-12T05:44:12;17.20;99.90
1678;DHT22;6034;46.864;15.216;2022-07-12T05:46:38;17.20;99.90
1678;DHT22;6034;46.864;15.216;2022-07-12T05:49:06;17.20;99.90
1678;DHT22;6034;46.864;15.216;2022-07-12T05:51:33;17.20;99.90
1678;DHT22;6034;46.864;15.216;2022-07-12T05:54:19;17.20;99.90
1678;DHT22;6034;46.864;15.216;2022-07-12T05:56:46;17.20;99.90
1678;DHT22;6034;46.864;15.216;2022-07-12T05:59:12;17.20;99.90
1678;DHT22;6034;46.864;15.216;2022-07-12T06:01:39;17.20;99.90
1678;DHT22;6034;46.864;15.216;2022-07-12T06:04:06;17.20;99.90
1678;DHT22;6034;46.864;15.216;2022-07-12T06:06:33;17.20;99.90
1678;DHT22;6034;46.864;15.216;2022-07-12T06:09:00;17.10;99.90
1678;DHT22;6034;46.864;15.216;2022-07-12T06:11:28;16.90;99.90
1678;DHT22;6034;46.864;15.216;2022-07-12T06:13:55;16.90;99.90
1678;DHT22;6034;46.864;15.216;2022-07-12T06:16:22;17.10;99.90
1678;DHT22;6034;46.864;15.216;2022-07-12T06:18:49;17.20;99.90
1678;DHT22;6034;46.864;15.216;2022-07-12T06:21:16;17.30;99.90
1678;DHT22;6034;46.864;15.216;2022-07-12T06:23:42;17.30;99.90
1678;DHT22;6034;46.864;15.216;2022-07-12T06:26:09;17.40;99.90
1678;DHT22;6034;46.864;15.216;2022-07-12T06:28:37;17.40;99.90
1678;DHT22;6034;46.864;15.216;2022-07-12T06:31:04;17.50;99.90
1678;DHT22;6034;46.864;15.216;2022-07-12T06:33:31;17.50;99.90
1678;DHT22;6034;46.864;15.216;2022-07-12T06:35:59;17.60;99.90
1678;DHT22;6034;46.864;15.216;2022-07-12T06:38:26;17.70;99.90
1678;DHT22;6034;46.864;15.216;2022-07-12T06:40:53;17.80;99.90
1678;DHT22;6034;46.864;15.216;2022-07-12T06:43:20;17.80;99.90
1678;DHT22;6034;46.864;15.216;2022-07-12T06:45:49;17.90;99.90
1678;DHT22;6034;46.864;15.216;2022-07-12T06:48:15;18.00;99.90
1678;DHT22;6034;46.864;15.216;2022-07-12T06:50:42;18.10;99.90
1678;DHT22;6034;46.864;15.216;2022-07-12T06:55:36;18.20;99.90
1678;DHT22;6034;46.864;15.216;2022-07-12T06:58:03;18.30;99.90
1678;DHT22;6034;46.864;15.216;2022-07-12T07:00:30;18.60;99.90
1678;DHT22;6034;46.864;15.216;2022-07-12T07:02:58;18.60;99.90
1678;DHT22;6034;46.864;15.216;2022-07-12T07:05:25;18.90;99.90
1678;DHT22;6034;46.864;15.216;2022-07-12T07:07:52;19.20;99.90
1678;DHT22;6034;46.864;15.216;2022-07-12T07:10:20;19.50;99.90
1678;DHT22;6034;46.864;15.216;2022-07-12T07:12:47;19.60;99.90
1678;DHT22;6034;46.864;15.216;2022-07-12T07:15:14;19.50;99.90
1678;DHT22;6034;46.864;15.216;2022-07-12T07:17:42;19.50;99.90
1678;DHT22;6034;46.864;15.216;2022-07-12T07:20:11;19.60;99.90
1678;DHT22;6034;46.864;15.216;2022-07-12T07:22:38;19.60;99.90
1678;DHT22;6034;46.864;15.216;2022-07-12T07:25:05;19.60;99.90
1678;DHT22;6034;46.864;15.216;2022-07-12T07:27:32;19.60;99.90
1678;DHT22;6034;46.864;15.216;2022-07-12T07:29:59;19.60;99.90
1678;DHT22;6034;46.864;15.216;2022-07-12T07:32:44;19.50;99.90
1678;DHT22;6034;46.864;15.216;2022-07-12T07:35:13;19.40;99.90
1678;DHT22;6034;46.864;15.216;2022-07-12T07:37:39;19.80;99.90
1678;DHT22;6034;46.864;15.216;2022-07-12T07:40:07;20.40;99.90
1678;DHT22;6034;46.864;15.216;2022-07-12T07:42:34;20.40;99.90
1678;DHT22;6034;46.864;15.216;2022-07-12T07:45:00;20.60;99.90
1678;DHT22;6034;46.864;15.216;2022-07-12T07:47:28;20.70;99.90
1678;DHT22;6034;46.864;15.216;2022-07-12T07:49:55;20.70;99.90
1678;DHT22;6034;46.864;15.216;2022-07-12T07:52:24;20.70;99.90
1678;DHT22;6034;46.864;15.216;2022-07-12T07:54:51;19.90;99.90
1678;DHT22;6034;46.864;15.216;2022-07-12T07:57:17;19.50;99.90
1678;DHT22;6034;46.864;15.216;2022-07-12T07:59:44;19.40;99.90
1678;DHT22;6034;46.864;15.216;2022-07-12T08:02:11;19.30;99.90
1678;DHT22;6034;46.864;15.216;2022-07-12T08:04:38;19.60;99.90
1678;DHT22;6034;46.864;15.216;2022-07-12T08:07:05;19.60;99.90
1678;DHT22;6034;46.864;15.216;2022-07-12T08:09:33;19.80;99.90
1678;DHT22;6034;46.864;15.216;2022-07-12T08:12:00;20.00;99.90
1678;DHT22;6034;46.864;15.216;2022-07-12T08:14:27;20.10;99.90
1678;DHT22;6034;46.864;15.216;2022-07-12T08:16:54;20.20;99.90
1678;DHT22;6034;46.864;15.216;2022-07-12T08:19:20;20.00;99.90
1678;DHT22;6034;46.864;15.216;2022-07-12T08:21:47;19.90;99.90
1678;DHT22;6034;46.864;15.216;2022-07-12T08:24:14;20.00;99.90
1678;DHT22;6034;46.864;15.216;2022-07-12T08:26:42;20.10;99.90
1678;DHT22;6034;46.864;15.216;2022-07-12T08:29:09;20.30;99.90
1678;DHT22;6034;46.864;15.216;2022-07-12T08:31:36;20.50;99.90
1678;DHT22;6034;46.864;15.216;2022-07-12T08:34:03;20.50;99.90
1678;DHT22;6034;46.864;15.216;2022-07-12T08:36:30;20.30;99.90
1678;DHT22;6034;46.864;15.216;2022-07-12T08:38:57;19.90;99.90
1678;DHT22;6034;46.864;15.216;2022-07-12T08:41:24;20.30;99.90
1678;DHT22;6034;46.864;15.216;2022-07-12T08:43:52;20.10;99.90
1678;DHT22;6034;46.864;15.216;2022-07-12T08:46:19;20.30;99.90
1678;DHT22;6034;46.864;15.216;2022-07-12T08:48:45;20.20;99.90
1678;DHT22;6034;46.864;15.216;2022-07-12T08:51:13;20.10;99.90
1678;DHT22;6034;46.864;15.216;2022-07-12T08:53:40;19.90;99.90
1678;DHT22;6034;46.864;15.216;2022-07-12T08:56:08;20.00;99.90
1678;DHT22;6034;46.864;15.216;2022-07-12T08:59:09;20.00;99.90
1678;DHT22;6034;46.864;15.216;2022-07-12T09:01:39;19.80;99.90
1678;DHT22;6034;46.864;15.216;2022-07-12T09:04:11;19.70;99.90
1678;DHT22;6034;46.864;15.216;2022-07-12T09:06:38;19.60;99.90
1678;DHT22;6034;46.864;15.216;2022-07-12T09:09:05;19.70;99.90
1678;DHT22;6034;46.864;15.216;2022-07-12T09:11:36;20.10;99.90
1678;DHT22;6034;46.864;15.216;2022-07-12T09:14:04;19.90;99.90
1678;DHT22;6034;46.864;15.216;2022-07-12T09:16:33;20.30;99.90
1678;DHT22;6034;46.864;15.216;2022-07-12T09:19:11;20.60;99.90
1678;DHT22;6034;46.864;15.216;2022-07-12T09:21:38;20.30;99.90
1678;DHT22;6034;46.864;15.216;2022-07-12T09:24:12;20.10;99.90
1678;DHT22;6034;46.864;15.216;2022-07-12T09:26:39;20.40;99.90
1678;DHT22;6034;46.864;15.216;2022-07-12T09:29:06;19.90;99.90
1678;DHT22;6034;46.864;15.216;2022-07-12T09:31:40;20.70;99.90
1678;DHT22;6034;46.864;15.216;2022-07-12T09:34:27;20.50;99.90
1678;DHT22;6034;46.864;15.216;2022-07-12T09:37:11;20.80;99.90
1678;DHT22;6034;46.864;15.216;2022-07-12T09:39:38;20.70;99.90
1678;DHT22;6034;46.864;15.216;2022-07-12T09:42:06;20.80;99.90
1678;DHT22;6034;46.864;15.216;2022-07-12T09:44:34;20.50;99.90
1678;DHT22;6034;46.864;15.216;2022-07-12T09:47:03;20.90;99.90
1678;DHT22;6034;46.864;15.216;2022-07-12T09:49:30;21.10;99.90
1678;DHT22;6034;46.864;15.216;2022-07-12T09:51:57;21.20;99.90
1678;DHT22;6034;46.864;15.216;2022-07-12T09:54:26;21.30;99.90
1678;DHT22;6034;46.864;15.216;2022-07-12T09:56:54;21.20;99.90
1678;DHT22;6034;46.864;15.216;2022-07-12T09:59:24;21.00;99.90
1678;DHT22;6034;46.864;15.216;2022-07-12T10:01:53;20.70;99.90
1678;DHT22;6034;46.864;15.216;2022-07-12T10:04:22;20.80;99.90
1678;DHT22;6034;46.864;15.216;2022-07-12T10:06:50;20.90;99.90
1678;DHT22;6034;46.864;15.216;2022-07-12T10:09:17;21.00;99.90
1678;DHT22;6034;46.864;15.216;2022-07-12T10:11:44;20.60;99.90
1678;DHT22;6034;46.864;15.216;2022-07-12T10:14:11;20.60;99.90
1678;DHT22;6034;46.864;15.216;2022-07-12T10:16:38;20.70;99.90
1678;DHT22;6034;46.864;15.216;2022-07-12T10:19:28;20.90;99.90
1678;DHT22;6034;46.864;15.216;2022-07-12T10:21:58;21.00;99.90
1678;DHT22;6034;46.864;15.216;2022-07-12T10:27:27;20.80;99.90
1678;DHT22;6034;46.864;15.216;2022-07-12T10:29:55;20.70;99.90
1678;DHT22;6034;46.864;15.216;2022-07-12T10:32:38;20.60;99.90
1678;DHT22;6034;46.864;15.216;2022-07-12T10:35:11;20.80;99.90
1678;DHT22;6034;46.864;15.216;2022-07-12T10:37:38;20.20;99.90
1678;DHT22;6034;46.864;15.216;2022-07-12T10:40:13;21.40;99.90
1678;DHT22;6034;46.864;15.216;2022-07-12T10:42:40;21.40;99.90
1678;DHT22;6034;46.864;15.216;2022-07-12T10:45:11;20.50;99.90
1678;DHT22;6034;46.864;15.216;2022-07-12T10:47:54;20.50;99.90
1678;DHT22;6034;46.864;15.216;2022-07-12T10:55:51;20.80;99.90
1678;DHT22;6034;46.864;15.216;2022-07-12T10:58:33;21.20;99.90
1678;DHT22;6034;46.864;15.216;2022-07-12T11:01:00;20.90;99.90
1678;DHT22;6034;46.864;15.216;2022-07-12T11:03:30;20.90;99.90
1678;DHT22;6034;46.864;15.216;2022-07-12T11:05:59;21.30;99.90
1678;DHT22;6034;46.864;15.216;2022-07-12T11:08:27;21.40;99.90
1678;DHT22;6034;46.864;15.216;2022-07-12T11:10:55;20.40;99.90
1678;DHT22;6034;46.864;15.216;2022-07-12T11:13:23;20.50;99.90
1678;DHT22;6034;46.864;15.216;2022-07-12T11:15:56;20.50;99.90
1678;DHT22;6034;46.864;15.216;2022-07-12T11:18:29;21.00;99.90
1678;DHT22;6034;46.864;15.216;2022-07-12T11:20:56;20.90;99.90
1678;DHT22;6034;46.864;15.216;2022-07-12T11:23:23;21.30;99.90
1678;DHT22;6034;46.864;15.216;2022-07-12T11:25:52;21.50;99.90
1678;DHT22;6034;46.864;15.216;2022-07-12T11:28:22;21.80;99.90
1678;DHT22;6034;46.864;15.216;2022-07-12T11:30:50;21.90;99.90
1678;DHT22;6034;46.864;15.216;2022-07-12T11:33:17;22.00;99.90
1678;DHT22;6034;46.864;15.216;2022-07-12T11:35:44;22.00;99.90
1678;DHT22;6034;46.864;15.216;2022-07-12T11:38:11;21.50;99.90
1678;DHT22;6034;46.864;15.216;2022-07-12T11:40:38;21.30;99.90
1678;DHT22;6034;46.864;15.216;2022-07-12T11:43:05;21.50;99.90
1678;DHT22;6034;46.864;15.216;2022-07-12T11:45:33;21.90;99.90
1678;DHT22;6034;46.864;15.216;2022-07-12T11:48:02;22.00;99.90
1678;DHT22;6034;46.864;15.216;2022-07-12T11:50:31;21.90;99.90
1678;DHT22;6034;46.864;15.216;2022-07-12T11:53:00;21.90;99.90
1678;DHT22;6034;46.864;15.216;2022-07-12T11:55:27;21.10;99.90
1678;DHT22;6034;46.864;15.216;2022-07-12T11:58:02;21.10;99.90
1678;DHT22;6034;46.864;15.216;2022-07-12T12:00:29;21.40;99.90
1678;DHT22;6034;46.864;15.216;2022-07-12T12:02:58;21.50;99.90
1678;DHT22;6034;46.864;15.216;2022-07-12T12:05:25;21.50;99.90
1678;DHT22;6034;46.864;15.216;2022-07-12T12:07:52;21.80;99.90
1678;DHT22;6034;46.864;15.216;2022-07-12T12:10:19;21.80;99.90
1678;DHT22;6034;46.864;15.216;2022-07-12T12:12:46;21.80;99.90
1678;DHT22;6034;46.864;15.216;2022-07-12T12:15:14;21.80;99.90
1678;DHT22;6034;46.864;15.216;2022-07-12T12:17:45;22.00;99.90
1678;DHT22;6034;46.864;15.216;2022-07-12T12:20:15;22.40;99.90
1678;DHT22;6034;46.864;15.216;2022-07-12T12:22:42;22.40;99.90
1678;DHT22;6034;46.864;15.216;2022-07-12T12:25:09;22.60;99.90
1678;DHT22;6034;46.864;15.216;2022-07-12T12:27:40;22.90;99.90
1678;DHT22;6034;46.864;15.216;2022-07-12T12:30:07;22.70;99.90
1678;DHT22;6034;46.864;15.216;2022-07-12T12:32:42;22.60;99.90
1678;DHT22;6034;46.864;15.216;2022-07-12T12:35:09;22.10;99.90
1678;DHT22;6034;46.864;15.216;2022-07-12T12:37:38;22.30;99.60
1678;DHT22;6034;46.864;15.216;2022-07-12T12:40:06;22.30;99.90
1678;DHT22;6034;46.864;15.216;2022-07-12T12:42:32;22.30;99.90
1678;DHT22;6034;46.864;15.216;2022-07-12T12:44:59;22.40;99.90
1678;DHT22;6034;46.864;15.216;2022-07-12T12:47:26;22.40;99.90
1678;DHT22;6034;46.864;15.216;2022-07-12T12:50:00;22.40;99.90
1678;DHT22;6034;46.864;15.216;2022-07-12T12:52:28;22.50;99.90
1678;DHT22;6034;46.864;15.216;2022-07-12T12:54:57;22.60;99.90
1678;DHT22;6034;46.864;15.216;2022-07-12T12:57:24;22.60;99.90
1678;DHT22;6034;46.864;15.216;2022-07-12T12:59:51;22.70;99.90
1678;DHT22;6034;46.864;15.216;2022-07-12T13:02:19;22.40;99.90
1678;DHT22;6034;46.864;15.216;2022-07-12T13:04:49;22.70;99.90
1678;DHT22;6034;46.864;15.216;2022-07-12T13:07:16;22.70;99.90
1678;DHT22;6034;46.864;15.216;2022-07-12T13:09:43;22.90;99.90
1678;DHT22;6034;46.864;15.216;2022-07-12T13:12:11;23.10;99.90
1678;DHT22;6034;46.864;15.216;2022-07-12T13:14:38;23.30;99.90
1678;DHT22;6034;46.864;15.216;2022-07-12T13:17:05;23.40;99.90
1678;DHT22;6034;46.864;15.216;2022-07-12T13:19:32;23.40;99.90
1678;DHT22;6034;46.864;15.216;2022-07-12T13:21:59;23.60;99.90
1678;DHT22;6034;46.864;15.216;2022-07-12T13:24:25;23.60;99.90
1678;DHT22;6034;46.864;15.216;2022-07-12T13:26:53;23.60;98.90
1678;DHT22;6034;46.864;15.216;2022-07-12T13:29:21;23.20;98.60
1678;DHT22;6034;46.864;15.216;2022-07-12T13:31:48;23.10;99.30
1678;DHT22;6034;46.864;15.216;2022-07-12T13:34:15;23.00;99.80
1678;DHT22;6034;46.864;15.216;2022-07-12T13:36:41;22.90;99.90
1678;DHT22;6034;46.864;15.216;2022-07-12T13:39:08;23.00;99.90
1678;DHT22;6034;46.864;15.216;2022-07-12T13:41:52;23.30;99.90
1678;DHT22;6034;46.864;15.216;2022-07-12T13:44:21;23.30;99.90
1678;DHT22;6034;46.864;15.216;2022-07-12T13:46:47;23.30;99.90
1678;DHT22;6034;46.864;15.216;2022-07-12T13:49:14;23.30;99.90
1678;DHT22;6034;46.864;15.216;2022-07-12T13:51:41;23.20;99.90
1678;DHT22;6034;46.864;15.216;2022-07-12T13:54:08;23.40;99.90
1678;DHT22;6034;46.864;15.216;2022-07-12T13:56:35;23.70;99.90
1678;DHT22;6034;46.864;15.216;2022-07-12T13:59:02;23.70;99.80
1678;DHT22;6034;46.864;15.216;2022-07-12T14:01:31;23.90;99.90
1678;DHT22;6034;46.864;15.216;2022-07-12T14:03:58;23.70;99.50
1678;DHT22;6034;46.864;15.216;2022-07-12T14:06:25;23.60;99.90
1678;DHT22;6034;46.864;15.216;2022-07-12T14:08:52;23.50;99.90
1678;DHT22;6034;46.864;15.216;2022-07-12T14:11:19;23.30;99.90
1678;DHT22;6034;46.864;15.216;2022-07-12T14:13:45;23.30;99.90
1678;DHT22;6034;46.864;15.216;2022-07-12T14:16:12;23.20;99.90
1678;DHT22;6034;46.864;15.216;2022-07-12T14:18:41;23.30;99.90
1678;DHT22;6034;46.864;15.216;2022-07-12T14:21:08;23.20;99.90
1678;DHT22;6034;46.864;15.216;2022-07-12T14:23:35;23.20;99.90
1678;DHT22;6034;46.864;15.216;2022-07-12T14:26:02;23.20;99.90
1678;DHT22;6034;46.864;15.216;2022-07-12T14:28:30;23.10;99.90
1678;DHT22;6034;46.864;15.216;2022-07-12T14:30:57;23.10;99.80
1678;DHT22;6034;46.864;15.216;2022-07-12T14:33:24;23.00;99.90
1678;DHT22;6034;46.864;15.216;2022-07-12T14:35:52;22.90;99.90
1678;DHT22;6034;46.864;15.216;2022-07-12T14:38:19;22.60;99.60
1678;DHT22;6034;46.864;15.216;2022-07-12T14:40:46;22.40;99.90
1678;DHT22;6034;46.864;15.216;2022-07-12T14:43:13;22.40;99.90
1678;DHT22;6034;46.864;15.216;2022-07-12T14:45:40;22.10;99.90
1678;DHT22;6034;46.864;15.216;2022-07-12T14:48:08;22.00;99.90
1678;DHT22;6034;46.864;15.216;2022-07-12T14:50:35;21.10;99.90
1678;DHT22;6034;46.864;15.216;2022-07-12T14:53:04;21.10;99.90
1678;DHT22;6034;46.864;15.216;2022-07-12T14:55:31;20.90;99.90
1678;DHT22;6034;46.864;15.216;2022-07-12T14:57:58;20.90;99.90
1678;DHT22;6034;46.864;15.216;2022-07-12T15:00:25;20.70;99.90
1678;DHT22;6034;46.864;15.216;2022-07-12T15:02:52;20.70;99.90
1678;DHT22;6034;46.864;15.216;2022-07-12T15:05:24;20.80;99.90
1678;DHT22;6034;46.864;15.216;2022-07-12T15:07:51;21.00;99.90
1678;DHT22;6034;46.864;15.216;2022-07-12T15:10:19;20.50;99.90
1678;DHT22;6034;46.864;15.216;2022-07-12T15:12:46;20.50;99.90
1678;DHT22;6034;46.864;15.216;2022-07-12T15:15:13;20.60;99.90
1678;DHT22;6034;46.864;15.216;2022-07-12T15:17:40;20.70;99.90
1678;DHT22;6034;46.864;15.216;2022-07-12T15:20:07;20.90;99.90
1678;DHT22;6034;46.864;15.216;2022-07-12T15:22:34;20.80;99.90
1678;DHT22;6034;46.864;15.216;2022-07-12T15:25:01;20.80;99.90
1678;DHT22;6034;46.864;15.216;2022-07-12T15:27:29;20.50;99.90
1678;DHT22;6034;46.864;15.216;2022-07-12T15:29:57;20.40;99.90
1678;DHT22;6034;46.864;15.216;2022-07-12T15:32:25;20.30;99.90
1678;DHT22;6034;46.864;15.216;2022-07-12T15:34:52;20.30;99.90
1678;DHT22;6034;46.864;15.216;2022-07-12T15:37:19;20.50;99.90
1678;DHT22;6034;46.864;15.216;2022-07-12T15:39:45;20.70;99.90
1678;DHT22;6034;46.864;15.216;2022-07-12T15:42:12;20.70;99.90
1678;DHT22;6034;46.864;15.216;2022-07-12T15:44:41;20.80;99.90
1678;DHT22;6034;46.864;15.216;2022-07-12T15:47:08;20.80;99.90
1678;DHT22;6034;46.864;15.216;2022-07-12T15:49:38;20.90;99.90
1678;DHT22;6034;46.864;15.216;2022-07-12T15:52:06;21.00;99.90
1678;DHT22;6034;46.864;15.216;2022-07-12T15:54:50;21.00;99.90
1678;DHT22;6034;46.864;15.216;2022-07-12T15:57:17;21.00;99.90
1678;DHT22;6034;46.864;15.216;2022-07-12T15:59:45;20.90;99.90
1678;DHT22;6034;46.864;15.216;2022-07-12T16:02:12;21.00;99.90
1678;DHT22;6034;46.864;15.216;2022-07-12T16:04:39;21.00;99.90
1678;DHT22;6034;46.864;15.216;2022-07-12T16:07:06;21.00;99.90
1678;DHT22;6034;46.864;15.216;2022-07-12T16:09:34;21.00;99.90
1678;DHT22;6034;46.864;15.216;2022-07-12T16:12:02;21.10;99.90
1678;DHT22;6034;46.864;15.216;2022-07-12T16:14:28;21.00;99.90
1678;DHT22;6034;46.864;15.216;2022-07-12T16:16:57;21.00;99.90
1678;DHT22;6034;46.864;15.216;2022-07-12T16:19:24;21.10;99.90
1678;DHT22;6034;46.864;15.216;2022-07-12T16:21:53;21.10;99.90
1678;DHT22;6034;46.864;15.216;2022-07-12T16:24:20;21.00;99.90
1678;DHT22;6034;46.864;15.216;2022-07-12T16:26:47;21.00;99.90
1678;DHT22;6034;46.864;15.216;2022-07-12T16:29:13;21.00;99.90
1678;DHT22;6034;46.864;15.216;2022-07-12T16:31:40;21.00;99.90
1678;DHT22;6034;46.864;15.216;2022-07-12T16:34:09;21.00;99.90
1678;DHT22;6034;46.864;15.216;2022-07-12T16:36:36;20.90;99.90
1678;DHT22;6034;46.864;15.216;2022-07-12T16:39:03;21.00;99.90
1678;DHT22;6034;46.864;15.216;2022-07-12T16:41:29;20.90;99.90
1678;DHT22;6034;46.864;15.216;2022-07-12T16:43:56;21.00;99.90
1678;DHT22;6034;46.864;15.216;2022-07-12T16:46:23;21.00;99.90
1678;DHT22;6034;46.864;15.216;2022-07-12T16:48:50;21.00;99.90
1678;DHT22;6034;46.864;15.216;2022-07-12T16:51:18;20.90;99.90
1678;DHT22;6034;46.864;15.216;2022-07-12T16:53:48;20.80;99.90
1678;DHT22;6034;46.864;15.216;2022-07-12T16:56:18;20.80;99.90
1678;DHT22;6034;46.864;15.216;2022-07-12T16:58:45;20.90;99.90
1678;DHT22;6034;46.864;15.216;2022-07-12T17:01:12;20.80;99.90
1678;DHT22;6034;46.864;15.216;2022-07-12T17:03:39;20.90;99.90
1678;DHT22;6034;46.864;15.216;2022-07-12T17:06:06;20.80;99.90
1678;DHT22;6034;46.864;15.216;2022-07-12T17:08:34;20.80;99.90
1678;DHT22;6034;46.864;15.216;2022-07-12T17:11:01;20.80;99.90
1678;DHT22;6034;46.864;15.216;2022-07-12T17:13:28;20.80;99.90
1678;DHT22;6034;46.864;15.216;2022-07-12T17:15:56;20.90;99.90
1678;DHT22;6034;46.864;15.216;2022-07-12T17:18:23;20.80;99.90
1678;DHT22;6034;46.864;15.216;2022-07-12T17:20:49;20.80;99.90
1678;DHT22;6034;46.864;15.216;2022-07-12T17:23:16;20.80;99.90
1678;DHT22;6034;46.864;15.216;2022-07-12T17:25:45;20.80;99.90
1678;DHT22;6034;46.864;15.216;2022-07-12T17:28:13;20.80;99.90
1678;DHT22;6034;46.864;15.216;2022-07-12T17:30:40;20.70;99.90
1678;DHT22;6034;46.864;15.216;2022-07-12T17:33:08;20.70;99.90
1678;DHT22;6034;46.864;15.216;2022-07-12T17:35:36;20.70;99.90
1678;DHT22;6034;46.864;15.216;2022-07-12T17:38:05;20.50;99.90
1678;DHT22;6034;46.864;15.216;2022-07-12T17:40:32;20.50;99.90
1678;DHT22;6034;46.864;15.216;2022-07-12T17:43:00;20.50;99.90
1678;DHT22;6034;46.864;15.216;2022-07-12T17:45:27;20.50;99.90
1678;DHT22;6034;46.864;15.216;2022-07-12T17:47:54;20.40;99.90
1678;DHT22;6034;46.864;15.216;2022-07-12T17:50:21;20.40;99.90
1678;DHT22;6034;46.864;15.216;2022-07-12T17:52:48;20.40;99.90
1678;DHT22;6034;46.864;15.216;2022-07-12T17:55:15;20.30;99.90
1678;DHT22;6034;46.864;15.216;2022-07-12T17:57:42;20.20;99.90
1678;DHT22;6034;46.864;15.216;2022-07-12T18:00:31;20.00;99.90
1678;DHT22;6034;46.864;15.216;2022-07-12T18:02:59;20.00;99.90
1678;DHT22;6034;46.864;15.216;2022-07-12T18:05:26;19.90;99.90
1678;DHT22;6034;46.864;15.216;2022-07-12T18:07:53;19.80;99.90
1678;DHT22;6034;46.864;15.216;2022-07-12T18:10:20;19.90;99.90
1678;DHT22;6034;46.864;15.216;2022-07-12T18:12:47;19.90;99.90
1678;DHT22;6034;46.864;15.216;2022-07-12T18:15:32;19.90;99.90
1678;DHT22;6034;46.864;15.216;2022-07-12T18:17:59;19.90;99.90
1678;DHT22;6034;46.864;15.216;2022-07-12T18:20:29;19.60;99.90
1678;DHT22;6034;46.864;15.216;2022-07-12T18:22:56;19.60;99.90
1678;DHT22;6034;46.864;15.216;2022-07-12T18:25:23;19.60;99.90
1678;DHT22;6034;46.864;15.216;2022-07-12T18:27:50;19.60;99.90
1678;DHT22;6034;46.864;15.216;2022-07-12T18:30:19;19.50;99.90
1678;DHT22;6034;46.864;15.216;2022-07-12T18:32:47;19.50;99.90
1678;DHT22;6034;46.864;15.216;2022-07-12T18:35:15;19.40;99.90
1678;DHT22;6034;46.864;15.216;2022-07-12T18:37:42;19.40;99.90
1678;DHT22;6034;46.864;15.216;2022-07-12T18:40:09;19.50;99.90
1678;DHT22;6034;46.864;15.216;2022-07-12T18:42:36;19.40;99.90
1678;DHT22;6034;46.864;15.216;2022-07-12T18:45:03;19.30;99.90
1678;DHT22;6034;46.864;15.216;2022-07-12T18:47:30;19.30;99.90
1678;DHT22;6034;46.864;15.216;2022-07-12T18:49:59;19.30;99.90
1678;DHT22;6034;46.864;15.216;2022-07-12T18:52:25;19.30;99.90
1678;DHT22;6034;46.864;15.216;2022-07-12T18:54:52;19.30;99.90
1678;DHT22;6034;46.864;15.216;2022-07-12T18:57:19;19.30;99.90
1678;DHT22;6034;46.864;15.216;2022-07-12T18:59:46;19.30;99.90
1678;DHT22;6034;46.864;15.216;2022-07-12T19:02:13;19.20;99.90
1678;DHT22;6034;46.864;15.216;2022-07-12T19:04:40;19.10;99.90
1678;DHT22;6034;46.864;15.216;2022-07-12T19:07:08;19.10;99.90
1678;DHT22;6034;46.864;15.216;2022-07-12T19:09:35;19.10;99.90
1678;DHT22;6034;46.864;15.216;2022-07-12T19:12:02;18.90;99.90
1678;DHT22;6034;46.864;15.216;2022-07-12T19:14:29;19.00;99.90
1678;DHT22;6034;46.864;15.216;2022-07-12T19:16:56;18.90;99.90
1678;DHT22;6034;46.864;15.216;2022-07-12T19:19:23;18.50;99.90
1678;DHT22;6034;46.864;15.216;2022-07-12T19:21:49;18.70;99.90
1678;DHT22;6034;46.864;15.216;2022-07-12T19:24:18;18.80;99.90
1678;DHT22;6034;46.864;15.216;2022-07-12T19:26:45;18.80;99.90
1678;DHT22;6034;46.864;15.216;2022-07-12T19:29:11;18.80;99.90
1678;DHT22;6034;46.864;15.216;2022-07-12T19:31:39;18.80;99.90
1678;DHT22;6034;46.864;15.216;2022-07-12T19:34:06;18.80;99.90
1678;DHT22;6034;46.864;15.216;2022-07-12T19:36:33;18.80;99.90
1678;DHT22;6034;46.864;15.216;2022-07-12T19:39:00;18.70;99.90
1678;DHT22;6034;46.864;15.216;2022-07-12T19:41:28;18.50;99.90
1678;DHT22;6034;46.864;15.216;2022-07-12T19:43:55;18.50;99.90
1678;DHT22;6034;46.864;15.216;2022-07-12T19:46:22;18.50;99.90
1678;DHT22;6034;46.864;15.216;2022-07-12T19:48:49;18.50;99.90
1678;DHT22;6034;46.864;15.216;2022-07-12T19:51:16;18.40;99.90
1678;DHT22;6034;46.864;15.216;2022-07-12T19:53:44;18.30;99.90
1678;DHT22;6034;46.864;15.216;2022-07-12T19:56:11;18.30;99.90
1678;DHT22;6034;46.864;15.216;2022-07-12T19:58:39;18.30;99.90
1678;DHT22;6034;46.864;15.216;2022-07-12T20:01:06;18.30;99.90
1678;DHT22;6034;46.864;15.216;2022-07-12T20:03:33;18.40;99.90
1678;DHT22;6034;46.864;15.216;2022-07-12T20:06:00;18.40;99.90
1678;DHT22;6034;46.864;15.216;2022-07-12T20:08:27;18.40;99.90
1678;DHT22;6034;46.864;15.216;2022-07-12T20:10:54;18.40;99.90
1678;DHT22;6034;46.864;15.216;2022-07-12T20:13:20;18.40;99.90
1678;DHT22;6034;46.864;15.216;2022-07-12T20:15:49;18.30;99.90
1678;DHT22;6034;46.864;15.216;2022-07-12T20:18:16;18.30;99.90
1678;DHT22;6034;46.864;15.216;2022-07-12T20:20:43;18.20;99.90
1678;DHT22;6034;46.864;15.216;2022-07-12T20:23:10;18.20;99.90
1678;DHT22;6034;46.864;15.216;2022-07-12T20:25:36;18.10;99.90
1678;DHT22;6034;46.864;15.216;2022-07-12T20:28:03;18.10;99.90
1678;DHT22;6034;46.864;15.216;2022-07-12T20:30:30;18.10;99.90
1678;DHT22;6034;46.864;15.216;2022-07-12T20:32:59;18.10;99.90
1678;DHT22;6034;46.864;15.216;2022-07-12T20:35:43;18.20;99.90
1678;DHT22;6034;46.864;15.216;2022-07-12T20:38:10;18.20;99.90
1678;DHT22;6034;46.864;15.216;2022-07-12T20:40:37;18.20;99.90
1678;DHT22;6034;46.864;15.216;2022-07-12T20:43:04;18.20;99.90
1678;DHT22;6034;46.864;15.216;2022-07-12T20:45:31;18.20;99.90
1678;DHT22;6034;46.864;15.216;2022-07-12T20:47:59;18.10;99.90
1678;DHT22;6034;46.864;15.216;2022-07-12T20:50:26;18.10;99.90
1678;DHT22;6034;46.864;15.216;2022-07-12T20:52:53;18.00;99.90
1678;DHT22;6034;46.864;15.216;2022-07-12T20:55:20;18.00;99.90
1678;DHT22;6034;46.864;15.216;2022-07-12T20:57:47;18.00;99.90
1678;DHT22;6034;46.864;15.216;2022-07-12T21:00:14;17.90;99.90
1678;DHT22;6034;46.864;15.216;2022-07-12T21:02:41;17.90;99.90